createdAt,value
2018-05-02T00:00:26.445Z,0.80
2018-05-02T00:02:55.317Z,0.70
2018-05-02T00:05:23.426Z,0.90
2018-05-02T00:07:52.336Z,0.93
2018-05-02T00:10:20.461Z,0.82
2018-05-02T00:12:48.601Z,0.90
2018-05-02T00:15:16.741Z,0.93
2018-05-02T00:17:45.634Z,0.80
2018-05-02T00:20:13.753Z,0.80
2018-05-02T00:22:41.875Z,0.82
2018-05-02T00:25:09.988Z,0.90
2018-05-02T00:27:38.106Z,0.85
2018-05-02T00:30:06.255Z,0.90
2018-05-02T00:32:34.368Z,0.90
2018-05-02T00:35:02.488Z,1.10
2018-05-02T00:37:31.378Z,0.70
2018-05-02T00:40:00.248Z,0.90
2018-05-02T00:42:28.362Z,0.93
2018-05-02T00:44:56.506Z,0.87
2018-05-02T00:47:24.623Z,0.93
2018-05-02T00:49:52.730Z,1.08
2018-05-02T00:52:20.843Z,0.93
2018-05-02T00:54:49.021Z,1.00
2018-05-02T00:57:17.941Z,0.90
2018-05-02T00:59:46.839Z,1.02
2018-05-02T01:02:14.958Z,0.80
2018-05-02T01:04:43.093Z,1.00
2018-05-02T01:07:11.217Z,1.00
2018-05-02T01:09:39.318Z,1.10
2018-05-02T01:12:08.953Z,1.15
2018-05-02T01:14:37.832Z,1.15
2018-05-02T01:17:05.937Z,1.00
2018-05-02T01:19:34.107Z,1.00
2018-05-02T01:22:03.032Z,1.10
2018-05-02T01:24:31.953Z,0.85
2018-05-02T01:27:00.025Z,1.00
2018-05-02T01:29:28.151Z,1.10
2018-05-02T01:31:57.052Z,0.90
2018-05-02T01:34:25.177Z,0.90
2018-05-02T01:36:53.289Z,1.13
2018-05-02T01:39:22.282Z,1.03
2018-05-02T01:41:50.376Z,1.00
2018-05-02T01:44:19.275Z,1.00
2018-05-02T01:46:47.394Z,0.90
2018-05-02T01:49:24.499Z,0.98
2018-05-02T01:51:52.604Z,1.03
2018-05-02T01:54:21.481Z,1.10
2018-05-02T01:56:49.617Z,0.90
2018-05-02T01:59:17.737Z,1.17
2018-05-02T02:01:46.611Z,0.93
2018-05-02T02:04:15.189Z,0.90
2018-05-02T02:06:43.296Z,0.90
2018-05-02T02:09:11.406Z,1.00
2018-05-02T02:11:39.519Z,0.90
2018-05-02T02:14:07.660Z,0.93
2018-05-02T02:16:35.807Z,1.13
2018-05-02T02:19:04.667Z,0.97
2018-05-02T02:21:32.776Z,0.85
2018-05-02T02:24:00.916Z,0.87
2018-05-02T02:26:29.041Z,1.20
2018-05-02T02:28:57.946Z,1.20
2018-05-02T02:31:26.822Z,1.13
2018-05-02T02:33:55.704Z,0.87
2018-05-02T02:36:25.342Z,1.07
2018-05-02T02:38:54.219Z,1.10
2018-05-02T02:41:23.106Z,0.90
2018-05-02T02:43:51.228Z,0.90
2018-05-02T02:46:19.336Z,1.10
2018-05-02T02:48:47.469Z,1.13
2018-05-02T02:51:16.332Z,1.20
2018-05-02T02:53:45.216Z,0.97
2018-05-02T02:56:14.122Z,0.97
2018-05-02T02:58:42.231Z,1.23
2018-05-02T03:01:11.137Z,1.00
2018-05-02T03:03:39.242Z,0.90
2018-05-02T03:06:07.345Z,0.87
2018-05-02T03:08:35.456Z,0.90
2018-05-02T03:11:03.568Z,1.37
2018-05-02T03:13:31.703Z,1.00
2018-05-02T03:16:00.580Z,1.27
2018-05-02T03:18:29.476Z,1.33
2018-05-02T03:20:57.661Z,1.43
2018-05-02T03:23:27.057Z,1.03
2018-05-02T03:25:55.186Z,1.47
2018-05-02T03:28:23.312Z,1.20
2018-05-02T03:30:51.417Z,1.37
2018-05-02T03:33:19.567Z,1.10
2018-05-02T03:35:47.680Z,1.43
2018-05-02T03:38:15.801Z,1.30
2018-05-02T03:40:43.941Z,1.30
2018-05-02T03:43:12.053Z,1.40
2018-05-02T03:45:40.158Z,1.30
2018-05-02T03:48:08.277Z,1.20
2018-05-02T03:50:36.398Z,1.37
2018-05-02T03:53:04.597Z,1.10
2018-05-02T03:55:32.633Z,1.13
2018-05-02T03:58:00.782Z,1.30
2018-05-02T04:00:46.706Z,1.17
2018-05-02T04:06:37.125Z,1.20
2018-05-02T04:09:06.017Z,1.17
2018-05-02T04:11:34.927Z,0.97
2018-05-02T04:14:03.798Z,1.17
2018-05-02T04:16:31.914Z,1.20
2018-05-02T04:19:00.021Z,1.30
2018-05-02T04:21:28.148Z,1.58
2018-05-02T04:23:57.022Z,1.20
2018-05-02T04:26:25.920Z,1.10
2018-05-02T04:28:54.064Z,1.07
2018-05-02T04:31:22.188Z,1.30
2018-05-02T04:33:51.052Z,1.10
2018-05-02T04:36:19.163Z,1.23
2018-05-02T04:38:48.049Z,1.10
2018-05-02T04:41:16.935Z,1.30
2018-05-02T04:43:45.037Z,1.20
2018-05-02T04:46:13.912Z,0.90
2018-05-02T04:48:42.790Z,1.20
2018-05-02T04:51:11.673Z,1.27
2018-05-02T04:53:39.783Z,1.27
2018-05-02T04:56:08.716Z,1.70
2018-05-02T04:58:36.821Z,1.37
2018-05-02T05:01:04.967Z,1.33
2018-05-02T05:03:33.074Z,1.53
2018-05-02T05:06:01.212Z,1.30
2018-05-02T05:08:29.331Z,1.23
2018-05-02T05:10:57.463Z,1.43
2018-05-02T05:13:25.577Z,1.40
2018-05-02T05:15:53.693Z,1.30
2018-05-02T05:18:22.570Z,1.33
2018-05-02T05:20:50.670Z,1.20
2018-05-02T05:23:19.552Z,1.70
2018-05-02T05:25:48.430Z,1.40
2018-05-02T05:28:16.560Z,1.50
2018-05-02T05:30:44.665Z,1.53
2018-05-02T05:33:12.785Z,1.63
2018-05-02T05:35:41.666Z,1.30
2018-05-02T05:38:09.841Z,1.60
2018-05-02T05:40:37.938Z,1.60
2018-05-02T05:43:06.825Z,1.63
2018-05-02T05:45:34.929Z,1.30
2018-05-02T05:48:03.120Z,1.40
2018-05-02T05:50:31.234Z,1.57
2018-05-02T05:52:59.351Z,1.80
2018-05-02T05:55:28.221Z,1.50
2018-05-02T05:57:56.396Z,1.63
2018-05-02T06:00:24.522Z,1.60
2018-05-02T06:02:52.647Z,1.50
2018-05-02T06:05:20.747Z,1.53
2018-05-02T06:07:49.635Z,1.40
2018-05-02T06:10:18.513Z,1.60
2018-05-02T06:12:46.717Z,1.37
2018-05-02T06:15:14.758Z,1.50
2018-05-02T06:17:42.889Z,1.50
2018-05-02T06:20:10.994Z,1.60
2018-05-02T06:22:39.133Z,1.60
2018-05-02T06:25:08.062Z,1.70
2018-05-02T06:27:36.189Z,1.90
2018-05-02T06:30:04.307Z,1.90
2018-05-02T06:32:32.426Z,1.37
2018-05-02T06:35:00.601Z,1.33
2018-05-02T06:37:28.706Z,1.63
2018-05-02T06:39:57.582Z,1.63
2018-05-02T06:42:27.229Z,1.80
2018-05-02T06:44:55.342Z,1.90
2018-05-02T06:47:23.454Z,1.90
2018-05-02T06:49:51.584Z,1.75
2018-05-02T06:52:19.688Z,2.17
2018-05-02T06:54:47.930Z,1.60
2018-05-02T06:57:15.977Z,1.70
2018-05-02T06:59:44.853Z,1.80
2018-05-02T07:02:12.993Z,2.20
2018-05-02T07:04:41.099Z,2.13
2018-05-02T07:07:09.307Z,2.40
2018-05-02T07:09:37.362Z,2.67
2018-05-02T07:12:05.466Z,2.73
2018-05-02T07:14:34.372Z,3.90
2018-05-02T07:17:02.489Z,3.70
2018-05-02T07:19:31.655Z,3.30
2018-05-02T07:21:59.788Z,3.10
2018-05-02T07:24:27.898Z,2.90
2018-05-02T07:26:56.006Z,2.93
2018-05-02T07:29:24.125Z,2.80
2018-05-02T07:31:52.224Z,2.80
2018-05-02T07:34:21.122Z,2.90
2018-05-02T07:36:49.987Z,2.83
2018-05-02T07:39:18.105Z,2.73
2018-05-02T07:41:46.239Z,2.40
2018-05-02T07:44:15.142Z,2.25
2018-05-02T07:46:43.257Z,2.33
2018-05-02T07:49:11.381Z,2.57
2018-05-02T07:51:40.255Z,2.33
2018-05-02T07:54:08.384Z,2.33
2018-05-02T07:56:37.267Z,1.73
2018-05-02T07:59:06.173Z,2.00
2018-05-02T08:01:35.073Z,2.33
2018-05-02T08:04:03.949Z,2.30
2018-05-02T08:06:32.093Z,2.78
2018-05-02T08:09:00.202Z,2.45
2018-05-02T08:11:28.305Z,2.00
2018-05-02T08:13:56.430Z,1.73
2018-05-02T08:18:59.791Z,1.87
2018-05-02T08:21:28.824Z,2.23
2018-05-02T08:23:56.940Z,2.10
2018-05-02T08:26:25.087Z,2.60
2018-05-02T08:28:53.943Z,2.03
2018-05-02T08:31:22.851Z,2.10
2018-05-02T08:33:50.965Z,2.23
2018-05-02T08:36:19.079Z,2.72
2018-05-02T08:38:48.000Z,2.90
2018-05-02T08:41:16.105Z,2.55
2018-05-02T08:43:44.211Z,2.75
2018-05-02T08:46:12.351Z,2.50
2018-05-02T08:48:40.449Z,2.20
2018-05-02T08:51:08.561Z,2.30
2018-05-02T08:53:37.469Z,2.57
2018-05-02T08:56:06.350Z,2.62
2018-05-02T08:58:35.230Z,2.65
2018-05-02T09:01:04.891Z,2.55
2018-05-02T09:03:33.007Z,2.78
2018-05-02T09:06:01.195Z,2.50
2018-05-02T09:08:29.265Z,2.50
2018-05-02T09:10:58.168Z,2.33
2018-05-02T09:13:26.272Z,3.22
2018-05-02T09:15:55.208Z,2.97
2018-05-02T09:18:23.322Z,2.92
2018-05-02T09:20:51.427Z,2.50
2018-05-02T09:23:19.563Z,2.90
2018-05-02T09:25:47.729Z,3.20
2018-05-02T09:28:15.807Z,3.33
2018-05-02T09:30:43.974Z,2.93
2018-05-02T09:33:12.086Z,3.17
2018-05-02T09:35:40.239Z,3.08
2018-05-02T09:38:08.338Z,3.20
2018-05-02T09:40:36.444Z,2.67
2018-05-02T09:43:04.562Z,3.33
2018-05-02T09:45:32.681Z,3.50
2018-05-02T09:48:01.562Z,3.45
2018-05-02T09:50:30.470Z,4.50
2018-05-02T09:52:59.363Z,3.97
2018-05-02T09:55:28.237Z,3.62
2018-05-02T09:57:56.369Z,3.47
2018-05-02T10:00:24.464Z,3.28
2018-05-02T10:02:52.564Z,3.80
2018-05-02T10:05:20.695Z,3.37
2018-05-02T10:07:48.806Z,3.55
2018-05-02T10:10:16.926Z,3.20
2018-05-02T10:12:45.832Z,3.42
2018-05-02T10:15:13.948Z,3.45
2018-05-02T10:17:42.049Z,3.10
2018-05-02T10:20:10.190Z,3.40
2018-05-02T10:22:38.305Z,3.10
2018-05-02T10:25:06.426Z,2.80
2018-05-02T10:27:34.558Z,3.10
2018-05-02T10:30:02.680Z,2.60
2018-05-02T10:32:30.794Z,3.22
2018-05-02T10:34:58.956Z,3.10
2018-05-02T10:37:27.063Z,2.80
2018-05-02T10:39:55.209Z,2.47
2018-05-02T10:42:23.325Z,2.53
2018-05-02T10:44:51.431Z,2.87
2018-05-02T10:47:20.326Z,3.05
2018-05-02T10:49:49.216Z,2.90
2018-05-02T10:52:18.085Z,2.60
2018-05-02T10:54:46.227Z,2.30
2018-05-02T10:57:14.342Z,2.87
2018-05-02T10:59:42.470Z,2.45
2018-05-02T11:02:10.609Z,2.83
2018-05-02T11:04:39.484Z,2.80
2018-05-02T11:07:07.582Z,3.15
2018-05-02T11:09:35.735Z,2.90
2018-05-02T11:12:03.847Z,2.92
2018-05-02T11:14:32.734Z,3.00
2018-05-02T11:17:01.658Z,2.90
2018-05-02T11:19:29.761Z,3.20
2018-05-02T11:21:57.941Z,3.20
2018-05-02T11:24:26.793Z,3.00
2018-05-02T11:26:55.669Z,3.17
2018-05-02T11:29:23.828Z,2.75
2018-05-02T11:31:51.940Z,3.15
2018-05-02T11:34:20.808Z,2.53
2018-05-02T11:36:48.918Z,2.65
2018-05-02T11:39:17.786Z,2.50
2018-05-02T11:41:45.900Z,2.92
2018-05-02T11:44:14.008Z,2.67
2018-05-02T11:46:42.148Z,2.40
2018-05-02T11:49:10.251Z,2.90
2018-05-02T11:51:38.356Z,2.45
2018-05-02T11:54:06.478Z,2.03
2018-05-02T11:56:34.585Z,2.50
2018-05-02T11:59:02.819Z,2.37
2018-05-02T12:01:31.705Z,2.47
2018-05-02T12:03:59.826Z,2.70
2018-05-02T12:06:27.935Z,2.72
2018-05-02T12:08:56.055Z,2.50
2018-05-02T12:11:24.975Z,2.55
2018-05-02T12:13:53.088Z,2.42
2018-05-02T12:16:21.194Z,2.05
2018-05-02T12:18:49.317Z,2.20
2018-05-02T12:21:17.501Z,1.80
2018-05-02T12:23:46.530Z,2.25
2018-05-02T12:26:14.629Z,2.75
2018-05-02T12:28:43.516Z,2.83
2018-05-02T12:31:13.248Z,2.58
2018-05-02T12:33:41.369Z,2.60
2018-05-02T12:36:09.491Z,2.40
2018-05-02T12:38:37.642Z,2.60
2018-05-02T12:41:06.549Z,2.62
2018-05-02T12:43:34.687Z,2.53
2018-05-02T12:46:02.802Z,2.50
2018-05-02T12:48:30.945Z,2.60
2018-05-02T12:50:59.054Z,2.70
2018-05-02T12:53:27.174Z,2.30
2018-05-02T12:55:55.298Z,2.50
2018-05-02T12:58:23.418Z,2.30
2018-05-02T13:00:51.542Z,2.35
2018-05-02T13:03:19.670Z,2.12
2018-05-02T13:05:47.786Z,2.75
2018-05-02T13:08:15.927Z,2.92
2018-05-02T13:10:44.789Z,2.55
2018-05-02T13:13:12.953Z,2.47
2018-05-02T13:15:41.097Z,2.28
2018-05-02T13:18:09.194Z,2.20
2018-05-02T13:20:37.324Z,2.05
2018-05-02T13:23:06.189Z,2.45
2018-05-02T13:25:34.302Z,2.08
2018-05-02T13:28:02.417Z,2.30
2018-05-02T13:30:30.533Z,2.08
2018-05-02T13:32:58.670Z,2.50
2018-05-02T13:35:26.804Z,2.37
2018-05-02T13:37:55.672Z,2.25
2018-05-02T13:40:23.795Z,2.25
2018-05-02T13:42:51.906Z,1.92
2018-05-02T13:45:20.017Z,2.20
2018-05-02T13:47:48.890Z,2.25
2018-05-02T13:50:17.008Z,2.17
2018-05-02T13:52:45.117Z,1.98
2018-05-02T13:55:13.254Z,1.90
2018-05-02T13:57:42.130Z,2.00
2018-05-02T14:00:11.019Z,1.83
2018-05-02T14:02:39.133Z,2.03
2018-05-02T14:05:07.243Z,2.30
2018-05-02T14:07:35.350Z,1.83
2018-05-02T14:10:03.474Z,1.70
2018-05-02T14:12:31.590Z,1.73
2018-05-02T14:14:59.762Z,1.73
2018-05-02T14:17:27.869Z,1.83
2018-05-02T14:19:56.763Z,2.00
2018-05-02T14:22:24.861Z,1.60
2018-05-02T14:24:53.751Z,1.73
2018-05-02T14:27:22.620Z,1.87
2018-05-02T14:29:50.739Z,1.75
2018-05-02T14:32:18.836Z,1.50
2018-05-02T14:34:46.954Z,1.42
2018-05-02T14:37:15.059Z,2.17
2018-05-02T14:39:43.178Z,1.80
2018-05-02T14:42:11.281Z,1.60
2018-05-02T14:44:40.186Z,1.80
2018-05-02T14:47:08.405Z,1.50
2018-05-02T14:49:36.516Z,1.80
2018-05-02T14:52:05.104Z,1.50
2018-05-02T14:54:33.265Z,1.60
2018-05-02T14:57:01.432Z,1.75
2018-05-02T14:59:29.528Z,2.00
2018-05-02T15:01:57.704Z,1.67
2018-05-02T15:04:25.793Z,2.22
2018-05-02T15:06:53.909Z,1.95
2018-05-02T15:09:22.792Z,2.00
2018-05-02T15:11:50.907Z,1.98
2018-05-02T15:14:19.008Z,2.10
2018-05-02T15:16:47.139Z,1.77
2018-05-02T15:19:16.009Z,1.80
2018-05-02T15:21:44.378Z,1.98
2018-05-02T15:24:12.488Z,2.00
2018-05-02T15:26:40.689Z,1.90
2018-05-02T15:29:08.803Z,2.33
2018-05-02T15:31:36.921Z,1.70
2018-05-02T15:34:05.801Z,1.98
2018-05-02T15:36:33.933Z,1.73
2018-05-02T15:39:02.050Z,2.12
2018-05-02T15:41:30.222Z,2.65
2018-05-02T15:43:58.291Z,2.53
2018-05-02T15:46:26.423Z,2.40
2018-05-02T15:48:54.524Z,1.80
2018-05-02T15:51:22.645Z,1.98
2018-05-02T15:53:50.743Z,1.90
2018-05-02T15:56:19.630Z,1.50
2018-05-02T15:58:48.502Z,1.62
2018-05-02T16:01:16.612Z,1.80
2018-05-02T16:03:44.728Z,1.67
2018-05-02T16:06:12.849Z,1.40
2018-05-02T16:08:41.718Z,1.80
2018-05-02T16:11:09.838Z,1.92
2018-05-02T16:13:37.943Z,1.85
2018-05-02T16:16:06.073Z,1.87
2018-05-02T16:18:35.012Z,1.60
2018-05-02T16:21:03.060Z,1.70
2018-05-02T16:23:31.955Z,1.90
2018-05-02T16:26:00.850Z,1.60
2018-05-02T16:28:29.731Z,2.37
2018-05-02T16:30:58.597Z,2.00
2018-05-02T16:33:28.391Z,1.70
2018-05-02T16:35:56.489Z,1.83
2018-05-02T16:38:24.605Z,2.10
2018-05-02T16:40:53.473Z,1.83
2018-05-02T16:43:21.600Z,1.60
2018-05-02T16:45:49.696Z,1.87
2018-05-02T16:48:17.815Z,1.58
2018-05-02T16:50:46.700Z,1.87
2018-05-02T16:53:14.817Z,1.50
2018-05-02T16:55:42.924Z,1.70
2018-05-02T16:58:11.057Z,1.70
2018-05-02T17:00:39.971Z,1.67
2018-05-02T17:03:08.101Z,1.75
2018-05-02T17:05:36.215Z,1.60
2018-05-02T17:08:04.325Z,1.77
2018-05-02T17:10:32.429Z,1.87
2018-05-02T17:13:00.543Z,1.67
2018-05-02T17:15:28.662Z,1.30
2018-05-02T17:17:56.772Z,1.70
2018-05-02T17:20:25.665Z,2.10
2018-05-02T17:22:53.795Z,1.50
2018-05-02T17:25:21.916Z,1.55
2018-05-02T17:27:50.042Z,1.67
2018-05-02T17:30:18.153Z,1.85
2018-05-02T17:32:46.278Z,1.90
2018-05-02T17:35:14.387Z,2.05
2018-05-02T17:37:42.501Z,1.83
2018-05-02T17:40:11.394Z,1.90
2018-05-02T17:42:39.520Z,1.55
2018-05-02T17:45:07.659Z,1.62
2018-05-02T17:47:36.573Z,1.62
2018-05-02T17:50:05.444Z,1.87
2018-05-02T17:52:33.558Z,1.77
2018-05-02T17:55:01.686Z,1.73
2018-05-02T17:57:29.797Z,1.87
2018-05-02T17:59:58.710Z,2.10
2018-05-02T18:02:26.836Z,1.70
2018-05-02T18:04:54.983Z,1.85
2018-05-02T18:07:23.113Z,1.35
2018-05-02T18:09:51.999Z,1.60
2018-05-02T18:12:20.109Z,1.80
2018-05-02T18:14:48.241Z,2.22
2018-05-02T18:17:16.375Z,2.05
2018-05-02T18:19:44.493Z,2.35
2018-05-02T18:22:12.628Z,2.47
2018-05-02T18:24:40.750Z,2.28
2018-05-02T18:27:08.870Z,2.12
2018-05-02T18:29:36.999Z,2.10
2018-05-02T18:32:05.134Z,2.00
2018-05-02T18:34:33.250Z,1.95
2018-05-02T18:37:02.142Z,1.77
2018-05-02T18:39:30.534Z,2.22
2018-05-02T18:41:58.729Z,1.55
2018-05-02T18:44:26.808Z,2.17
2018-05-02T18:46:55.684Z,1.98
2018-05-02T18:49:23.803Z,1.70
2018-05-02T18:51:51.916Z,1.60
2018-05-02T18:54:20.038Z,1.75
2018-05-02T18:56:48.924Z,2.15
2018-05-02T18:59:17.077Z,2.40
2018-05-02T19:01:45.177Z,1.83
2018-05-02T19:04:13.301Z,2.17
2018-05-02T19:06:41.436Z,1.83
2018-05-02T19:09:10.170Z,2.03
2018-05-02T19:11:38.292Z,1.90
2018-05-02T19:14:06.432Z,1.75
2018-05-02T19:16:34.541Z,1.65
2018-05-02T19:19:08.127Z,1.65
2018-05-02T19:21:36.252Z,2.30
2018-05-02T19:24:05.137Z,1.90
2018-05-02T19:26:37.088Z,1.45
2018-05-02T19:29:05.196Z,1.77
2018-05-02T19:31:38.779Z,1.73
2018-05-02T19:34:06.889Z,1.77
2018-05-02T19:36:35.021Z,1.70
2018-05-02T19:39:03.126Z,1.70
2018-05-02T19:41:37.492Z,1.67
2018-05-02T19:44:06.451Z,1.60
2018-05-02T19:46:34.562Z,1.55
2018-05-02T19:49:02.662Z,1.40
2018-05-02T19:51:36.185Z,1.40
2018-05-02T19:54:05.062Z,1.50
2018-05-02T19:56:33.206Z,1.65
2018-05-02T19:59:01.324Z,1.48
2018-05-02T20:01:34.958Z,1.77
2018-05-02T20:04:03.070Z,1.50
2018-05-02T20:06:31.189Z,1.80
2018-05-02T20:09:05.650Z,1.77
2018-05-02T20:11:39.178Z,2.05
2018-05-02T20:14:08.051Z,1.75
2018-05-02T20:16:36.184Z,1.90
2018-05-02T20:19:04.322Z,2.55
2018-05-02T20:21:32.433Z,3.28
2018-05-02T20:24:00.563Z,2.70
2018-05-02T20:26:28.937Z,1.80
2018-05-02T20:28:57.044Z,1.90
2018-05-02T20:31:25.163Z,1.90
2018-05-02T20:33:54.042Z,1.85
2018-05-02T20:36:22.213Z,1.90
2018-05-02T20:38:50.315Z,2.08
2018-05-02T20:41:19.221Z,1.80
2018-05-02T20:43:47.332Z,2.20
2018-05-02T20:46:15.489Z,1.90
2018-05-02T20:48:43.594Z,2.20
2018-05-02T20:51:11.717Z,1.95
2018-05-02T20:53:40.585Z,1.80
2018-05-02T20:56:08.713Z,1.60
2018-05-02T20:58:36.853Z,2.12
2018-05-02T21:01:04.969Z,2.20
2018-05-02T21:03:33.072Z,2.12
2018-05-02T21:06:01.191Z,1.92
2018-05-02T21:08:30.078Z,2.12
2018-05-02T21:10:58.230Z,2.15
2018-05-02T21:13:27.113Z,2.22
2018-05-02T21:15:55.226Z,2.10
2018-05-02T21:18:23.343Z,2.15
2018-05-02T21:20:51.488Z,2.12
2018-05-02T21:23:19.594Z,2.00
2018-05-02T21:25:47.694Z,2.20
2018-05-02T21:28:15.814Z,2.35
2018-05-02T21:30:43.941Z,2.00
2018-05-02T21:33:12.068Z,2.37
2018-05-02T21:35:40.166Z,2.40
2018-05-02T21:38:09.064Z,2.50
2018-05-02T21:40:37.202Z,2.25
2018-05-02T21:43:05.294Z,2.35
2018-05-02T21:45:33.414Z,2.20
2018-05-02T21:48:01.531Z,2.53
2018-05-02T21:50:29.642Z,2.37
2018-05-02T21:52:58.514Z,2.70
2018-05-02T21:55:26.626Z,2.45
2018-05-02T21:57:54.739Z,2.30
2018-05-02T22:00:23.628Z,2.33
2018-05-02T22:02:51.734Z,2.45
2018-05-02T22:05:19.956Z,2.40
2018-05-02T22:07:47.981Z,2.30
2018-05-02T22:10:16.085Z,2.17
2018-05-02T22:12:44.987Z,2.50
2018-05-02T22:15:13.108Z,2.65
2018-05-02T22:17:41.202Z,2.62
2018-05-02T22:20:09.335Z,2.65
2018-05-02T22:22:37.442Z,2.37
2018-05-02T22:25:05.556Z,2.30
2018-05-02T22:27:33.736Z,2.70
2018-05-02T22:30:01.853Z,2.35
2018-05-02T22:32:29.967Z,2.55
2018-05-02T22:34:58.072Z,2.42
2018-05-02T22:37:26.953Z,2.50
2018-05-02T22:39:55.063Z,2.60
2018-05-02T22:42:23.168Z,2.55
2018-05-02T22:44:51.280Z,2.72
2018-05-02T22:47:19.393Z,2.80
2018-05-02T22:49:47.494Z,2.70
2018-05-02T22:52:15.615Z,2.45
2018-05-02T22:54:43.713Z,2.72
2018-05-02T22:57:12.608Z,2.75
2018-05-02T22:59:41.484Z,2.55
2018-05-02T23:02:09.612Z,3.05
2018-05-02T23:04:37.742Z,2.67
2018-05-02T23:07:05.850Z,2.92
2018-05-02T23:09:33.961Z,2.62
2018-05-02T23:12:02.102Z,2.50
2018-05-02T23:14:30.210Z,2.50
2018-05-02T23:16:58.317Z,2.47
2018-05-02T23:19:26.426Z,2.30
2018-05-02T23:21:55.296Z,2.67
2018-05-02T23:24:23.435Z,2.62
2018-05-02T23:26:51.541Z,2.40
2018-05-02T23:29:19.645Z,3.00
2018-05-02T23:31:48.533Z,3.00
2018-05-02T23:34:17.402Z,3.10
2018-05-02T23:36:45.524Z,2.45
2018-05-02T23:39:13.646Z,2.95
2018-05-02T23:41:41.758Z,2.80
2018-05-02T23:44:10.643Z,2.87
2018-05-02T23:46:38.748Z,2.60
2018-05-02T23:49:06.866Z,2.60
2018-05-02T23:51:35.002Z,2.45
2018-05-02T23:54:03.108Z,2.70
2018-05-02T23:56:31.205Z,2.62
2018-05-02T23:58:59.330Z,2.75
